SBMQ/MCP METAR and TAF weather

Enter ICAO airport designator
Station Type Date Time Source
SBMQ METAR 2021/05/15 01:00 UTC NOAA

SBMQ 150100Z 05002KT 9999 FEW010 28/27 Q1012


Station Type Date Time Source
SBMQ Decoded METAR 2021/05/15 01:00 UTC NOAA

Macapa, Brazil (SBMQ) 00-02N 050-03W
May 14, 2021 - 09:00 PM EDT / 2021.05.15 0100 UTC
Wind: from the NE (050 degrees) at 2 MPH (2 KT):0
Visibility: greater than 7 mile(s):0
Sky conditions: mostly clear
Temperature: 82 F (28 C)
Dew Point: 80 F (27 C)
Relative Humidity: 94%
Pressure (altimeter): 29.88 in. Hg (1012 hPa)
ob: SBMQ 150100Z 05002KT 9999 FEW010 28/27 Q1012
cycle: 1

Station Type Date Time Source
SBMQ TAF 2021/05/15 00:00 UTC NOAA

TAF SBMQ 142045Z 1500/1524 04010KT 8000 TS BKN020 FEW030CB TN25/1508Z TX29/1516Z
TEMPO 1506/1512 07015KT 4000 TSRA BKN012 FEW025CB
BECMG 1513/1515 07010KT NSW SCT020 FEW025TCU
BECMG 1516/1518 TS BKN020 FEW030CB
TEMPO 1518/1524 04015KT 5000 TSRA BKN015 FEW025CB
RMK PGS

Example: see airport list